sensor_id;sensor_type;location;lat;lon;timestamp;P1;durP1;ratioP1;P2;durP2;ratioP2
22939;SDS011;11636;52.086;5.090;2022-08-02T00:00:32;2.15;;;0.88;;
22939;SDS011;11636;52.086;5.090;2022-08-02T00:03:27;3.38;;;0.90;;
22939;SDS011;11636;52.086;5.090;2022-08-02T00:06:16;3.03;;;1.00;;
22939;SDS011;11636;52.086;5.090;2022-08-02T00:09:10;2.17;;;0.77;;
22939;SDS011;11636;52.086;5.090;2022-08-02T00:11:57;1.95;;;0.60;;
22939;SDS011;11636;52.086;5.090;2022-08-02T00:14:51;3.33;;;0.93;;
22939;SDS011;11636;52.086;5.090;2022-08-02T00:17:52;2.63;;;0.80;;
22939;SDS011;11636;52.086;5.090;2022-08-02T00:20:46;2.28;;;0.77;;
22939;SDS011;11636;52.086;5.090;2022-08-02T00:23:40;2.13;;;0.55;;
22939;SDS011;11636;52.086;5.090;2022-08-02T00:26:47;1.65;;;0.60;;
22939;SDS011;11636;52.086;5.090;2022-08-02T00:29:41;1.77;;;0.68;;
22939;SDS011;11636;52.086;5.090;2022-08-02T00:32:38;2.28;;;0.70;;
22939;SDS011;11636;52.086;5.090;2022-08-02T00:35:32;2.28;;;0.70;;
22939;SDS011;11636;52.086;5.090;2022-08-02T00:38:27;2.25;;;0.80;;
22939;SDS011;11636;52.086;5.090;2022-08-02T00:41:22;1.73;;;0.68;;
22939;SDS011;11636;52.086;5.090;2022-08-02T00:44:17;1.70;;;0.63;;
22939;SDS011;11636;52.086;5.090;2022-08-02T00:47:05;1.63;;;0.60;;
22939;SDS011;11636;52.086;5.090;2022-08-02T00:50:05;2.60;;;0.73;;
22939;SDS011;11636;52.086;5.090;2022-08-02T00:52:52;3.40;;;0.90;;
22939;SDS011;11636;52.086;5.090;2022-08-02T00:55:46;3.40;;;1.00;;
22939;SDS011;11636;52.086;5.090;2022-08-02T00:58:34;2.05;;;0.70;;
22939;SDS011;11636;52.086;5.090;2022-08-02T01:01:28;2.80;;;0.80;;
22939;SDS011;11636;52.086;5.090;2022-08-02T01:04:43;2.20;;;0.82;;
22939;SDS011;11636;52.086;5.090;2022-08-02T01:07:37;3.00;;;0.82;;
22939;SDS011;11636;52.086;5.090;2022-08-02T01:10:31;2.60;;;0.80;;
22939;SDS011;11636;52.086;5.090;2022-08-02T01:13:18;3.15;;;1.20;;
22939;SDS011;11636;52.086;5.090;2022-08-02T01:16:15;2.05;;;0.85;;
22939;SDS011;11636;52.086;5.090;2022-08-02T01:29:01;2.03;;;0.80;;
22939;SDS011;11636;52.086;5.090;2022-08-02T01:35:00;2.65;;;1.02;;
22939;SDS011;11636;52.086;5.090;2022-08-02T01:38:03;2.15;;;0.90;;
22939;SDS011;11636;52.086;5.090;2022-08-02T01:41:06;1.70;;;0.80;;
22939;SDS011;11636;52.086;5.090;2022-08-02T01:46:52;3.40;;;0.88;;
22939;SDS011;11636;52.086;5.090;2022-08-02T01:49:44;2.72;;;0.90;;
22939;SDS011;11636;52.086;5.090;2022-08-02T01:52:41;3.00;;;1.08;;
22939;SDS011;11636;52.086;5.090;2022-08-02T01:55:40;2.22;;;0.68;;
22939;SDS011;11636;52.086;5.090;2022-08-02T01:58:44;2.60;;;1.00;;
22939;SDS011;11636;52.086;5.090;2022-08-02T02:01:39;3.10;;;0.90;;
22939;SDS011;11636;52.086;5.090;2022-08-02T02:04:34;2.55;;;1.00;;
22939;SDS011;11636;52.086;5.090;2022-08-02T02:07:23;3.25;;;1.20;;
22939;SDS011;11636;52.086;5.090;2022-08-02T02:10:19;2.80;;;0.80;;
22939;SDS011;11636;52.086;5.090;2022-08-02T02:13:13;3.75;;;1.25;;
22939;SDS011;11636;52.086;5.090;2022-08-02T02:16:19;3.08;;;1.13;;
22939;SDS011;11636;52.086;5.090;2022-08-02T02:19:15;3.00;;;1.20;;
22939;SDS011;11636;52.086;5.090;2022-08-02T02:25:00;2.88;;;1.00;;
22939;SDS011;11636;52.086;5.090;2022-08-02T02:28:11;2.00;;;0.90;;
22939;SDS011;11636;52.086;5.090;2022-08-02T02:31:09;3.05;;;1.10;;
22939;SDS011;11636;52.086;5.090;2022-08-02T02:34:16;3.17;;;1.08;;
22939;SDS011;11636;52.086;5.090;2022-08-02T02:37:18;2.30;;;1.00;;
22939;SDS011;11636;52.086;5.090;2022-08-02T02:40:14;2.10;;;0.90;;
22939;SDS011;11636;52.086;5.090;2022-08-02T02:43:02;2.70;;;1.20;;
22939;SDS011;11636;52.086;5.090;2022-08-02T02:45:59;3.03;;;0.85;;
22939;SDS011;11636;52.086;5.090;2022-08-02T02:48:55;2.40;;;1.00;;
22939;SDS011;11636;52.086;5.090;2022-08-02T02:51:50;2.55;;;1.00;;
22939;SDS011;11636;52.086;5.090;2022-08-02T02:54:39;3.63;;;1.10;;
22939;SDS011;11636;52.086;5.090;2022-08-02T02:57:36;1.55;;;0.60;;
22939;SDS011;11636;52.086;5.090;2022-08-02T03:00:24;2.30;;;0.80;;
22939;SDS011;11636;52.086;5.090;2022-08-02T03:03:37;2.38;;;1.00;;
22939;SDS011;11636;52.086;5.090;2022-08-02T03:06:26;2.75;;;0.82;;
22939;SDS011;11636;52.086;5.090;2022-08-02T03:09:30;2.45;;;0.70;;
22939;SDS011;11636;52.086;5.090;2022-08-02T03:12:23;2.28;;;0.95;;
22939;SDS011;11636;52.086;5.090;2022-08-02T03:15:25;4.07;;;1.05;;
22939;SDS011;11636;52.086;5.090;2022-08-02T03:21:29;3.28;;;1.40;;
22939;SDS011;11636;52.086;5.090;2022-08-02T03:24:18;2.40;;;0.90;;
22939;SDS011;11636;52.086;5.090;2022-08-02T03:27:14;4.10;;;1.15;;
22939;SDS011;11636;52.086;5.090;2022-08-02T03:30:01;3.30;;;0.95;;
22939;SDS011;11636;52.086;5.090;2022-08-02T03:32:55;2.15;;;0.90;;
22939;SDS011;11636;52.086;5.090;2022-08-02T03:35:49;2.20;;;0.85;;
22939;SDS011;11636;52.086;5.090;2022-08-02T03:38:47;1.95;;;0.80;;
22939;SDS011;11636;52.086;5.090;2022-08-02T03:41:35;2.60;;;0.85;;
22939;SDS011;11636;52.086;5.090;2022-08-02T03:44:30;2.65;;;1.00;;
22939;SDS011;11636;52.086;5.090;2022-08-02T03:47:19;3.30;;;1.13;;
22939;SDS011;11636;52.086;5.090;2022-08-02T03:50:13;2.65;;;1.10;;
22939;SDS011;11636;52.086;5.090;2022-08-02T03:53:01;2.17;;;0.90;;
22939;SDS011;11636;52.086;5.090;2022-08-02T03:56:06;2.85;;;0.90;;
22939;SDS011;11636;52.086;5.090;2022-08-02T03:59:06;2.30;;;0.95;;
22939;SDS011;11636;52.086;5.090;2022-08-02T04:02:00;3.63;;;1.20;;
22939;SDS011;11636;52.086;5.090;2022-08-02T04:04:49;2.88;;;1.00;;
22939;SDS011;11636;52.086;5.090;2022-08-02T04:07:42;2.90;;;0.80;;
22939;SDS011;11636;52.086;5.090;2022-08-02T04:10:56;2.67;;;0.90;;
22939;SDS011;11636;52.086;5.090;2022-08-02T04:14:09;2.15;;;0.85;;
22939;SDS011;11636;52.086;5.090;2022-08-02T04:17:04;2.47;;;1.00;;
22939;SDS011;11636;52.086;5.090;2022-08-02T04:22:56;3.03;;;0.98;;
22939;SDS011;11636;52.086;5.090;2022-08-02T04:25:53;2.63;;;0.93;;
22939;SDS011;11636;52.086;5.090;2022-08-02T04:28:43;2.88;;;0.88;;
22939;SDS011;11636;52.086;5.090;2022-08-02T04:31:37;2.72;;;0.95;;
22939;SDS011;11636;52.086;5.090;2022-08-02T04:34:27;2.15;;;0.85;;
22939;SDS011;11636;52.086;5.090;2022-08-02T04:37:21;2.90;;;1.10;;
22939;SDS011;11636;52.086;5.090;2022-08-02T04:40:09;2.50;;;1.00;;
22939;SDS011;11636;52.086;5.090;2022-08-02T04:43:03;2.92;;;1.00;;
22939;SDS011;11636;52.086;5.090;2022-08-02T04:45:51;3.17;;;1.00;;
22939;SDS011;11636;52.086;5.090;2022-08-02T04:48:45;2.20;;;0.90;;
22939;SDS011;11636;52.086;5.090;2022-08-02T04:51:40;1.75;;;0.88;;
22939;SDS011;11636;52.086;5.090;2022-08-02T04:54:34;2.20;;;0.90;;
22939;SDS011;11636;52.086;5.090;2022-08-02T04:57:28;2.78;;;1.20;;
22939;SDS011;11636;52.086;5.090;2022-08-02T05:00:38;2.83;;;1.05;;
22939;SDS011;11636;52.086;5.090;2022-08-02T05:03:32;2.83;;;1.00;;
22939;SDS011;11636;52.086;5.090;2022-08-02T05:06:20;2.40;;;1.20;;
22939;SDS011;11636;52.086;5.090;2022-08-02T05:09:13;2.88;;;0.93;;
22939;SDS011;11636;52.086;5.090;2022-08-02T05:12:01;3.35;;;0.98;;
22939;SDS011;11636;52.086;5.090;2022-08-02T05:14:55;3.28;;;1.15;;
22939;SDS011;11636;52.086;5.090;2022-08-02T05:17:42;3.03;;;1.17;;
22939;SDS011;11636;52.086;5.090;2022-08-02T05:20:37;2.15;;;0.98;;
22939;SDS011;11636;52.086;5.090;2022-08-02T05:23:31;2.03;;;0.93;;
22939;SDS011;11636;52.086;5.090;2022-08-02T05:26:19;3.53;;;1.40;;
22939;SDS011;11636;52.086;5.090;2022-08-02T05:29:12;3.85;;;1.33;;
22939;SDS011;11636;52.086;5.090;2022-08-02T05:32:00;3.97;;;1.40;;
22939;SDS011;11636;52.086;5.090;2022-08-02T05:34:54;4.00;;;1.30;;
22939;SDS011;11636;52.086;5.090;2022-08-02T05:37:41;2.63;;;1.15;;
22939;SDS011;11636;52.086;5.090;2022-08-02T05:40:34;2.10;;;1.05;;
22939;SDS011;11636;52.086;5.090;2022-08-02T05:43:40;2.15;;;0.80;;
22939;SDS011;11636;52.086;5.090;2022-08-02T05:46:33;2.10;;;1.10;;
22939;SDS011;11636;52.086;5.090;2022-08-02T05:49:21;2.45;;;1.30;;
22939;SDS011;11636;52.086;5.090;2022-08-02T05:52:15;2.80;;;1.30;;
22939;SDS011;11636;52.086;5.090;2022-08-02T05:55:05;2.65;;;1.35;;
22939;SDS011;11636;52.086;5.090;2022-08-02T05:58:11;3.33;;;1.55;;
22939;SDS011;11636;52.086;5.090;2022-08-02T06:01:03;2.00;;;1.10;;
22939;SDS011;11636;52.086;5.090;2022-08-02T06:03:59;2.65;;;1.55;;
22939;SDS011;11636;52.086;5.090;2022-08-02T06:06:54;2.22;;;1.10;;
22939;SDS011;11636;52.086;5.090;2022-08-02T06:09:51;3.63;;;1.50;;
22939;SDS011;11636;52.086;5.090;2022-08-02T06:12:47;2.28;;;0.98;;
22939;SDS011;11636;52.086;5.090;2022-08-02T06:15:37;3.13;;;1.27;;
22939;SDS011;11636;52.086;5.090;2022-08-02T06:18:40;2.33;;;1.38;;
22939;SDS011;11636;52.086;5.090;2022-08-02T06:21:34;2.85;;;1.42;;
22939;SDS011;11636;52.086;5.090;2022-08-02T06:24:50;3.28;;;1.50;;
22939;SDS011;11636;52.086;5.090;2022-08-02T06:27:46;5.50;;;2.85;;
22939;SDS011;11636;52.086;5.090;2022-08-02T06:30:35;4.30;;;2.58;;
22939;SDS011;11636;52.086;5.090;2022-08-02T06:33:28;6.57;;;2.75;;
22939;SDS011;11636;52.086;5.090;2022-08-02T06:36:44;3.53;;;2.22;;
22939;SDS011;11636;52.086;5.090;2022-08-02T06:39:50;3.85;;;2.50;;
22939;SDS011;11636;52.086;5.090;2022-08-02T06:46:06;5.30;;;3.35;;
22939;SDS011;11636;52.086;5.090;2022-08-02T06:49:13;6.50;;;3.95;;
22939;SDS011;11636;52.086;5.090;2022-08-02T06:52:07;5.47;;;3.35;;
22939;SDS011;11636;52.086;5.090;2022-08-02T06:55:04;5.75;;;4.30;;
22939;SDS011;11636;52.086;5.090;2022-08-02T06:57:52;6.07;;;3.72;;
22939;SDS011;11636;52.086;5.090;2022-08-02T07:00:46;9.57;;;4.55;;
22939;SDS011;11636;52.086;5.090;2022-08-02T07:03:33;7.68;;;5.85;;
22939;SDS011;11636;52.086;5.090;2022-08-02T07:06:28;8.00;;;5.15;;
22939;SDS011;11636;52.086;5.090;2022-08-02T07:09:23;7.95;;;4.78;;
22939;SDS011;11636;52.086;5.090;2022-08-02T07:12:10;10.60;;;5.97;;
22939;SDS011;11636;52.086;5.090;2022-08-02T07:15:05;7.93;;;5.38;;
22939;SDS011;11636;52.086;5.090;2022-08-02T07:17:53;7.20;;;4.88;;
22939;SDS011;11636;52.086;5.090;2022-08-02T07:20:47;8.10;;;5.97;;
22939;SDS011;11636;52.086;5.090;2022-08-02T07:23:34;12.60;;;8.13;;
22939;SDS011;11636;52.086;5.090;2022-08-02T07:26:28;11.85;;;8.25;;
22939;SDS011;11636;52.086;5.090;2022-08-02T07:29:42;8.48;;;6.13;;
22939;SDS011;11636;52.086;5.090;2022-08-02T07:32:36;9.25;;;7.05;;
22939;SDS011;11636;52.086;5.090;2022-08-02T07:35:23;11.52;;;7.85;;
22939;SDS011;11636;52.086;5.090;2022-08-02T07:38:21;10.02;;;6.95;;
22939;SDS011;11636;52.086;5.090;2022-08-02T07:41:18;11.40;;;8.63;;
22939;SDS011;11636;52.086;5.090;2022-08-02T07:44:07;13.98;;;8.63;;
22939;SDS011;11636;52.086;5.090;2022-08-02T07:47:01;12.63;;;9.10;;
22939;SDS011;11636;52.086;5.090;2022-08-02T07:49:48;14.20;;;8.77;;
22939;SDS011;11636;52.086;5.090;2022-08-02T07:52:42;13.27;;;8.27;;
22939;SDS011;11636;52.086;5.090;2022-08-02T07:55:30;12.52;;;8.55;;
22939;SDS011;11636;52.086;5.090;2022-08-02T07:58:26;11.38;;;7.18;;
22939;SDS011;11636;52.086;5.090;2022-08-02T08:01:13;7.97;;;6.53;;
22939;SDS011;11636;52.086;5.090;2022-08-02T08:04:07;10.13;;;6.72;;
22939;SDS011;11636;52.086;5.090;2022-08-02T08:06:54;9.48;;;7.03;;
22939;SDS011;11636;52.086;5.090;2022-08-02T08:09:48;11.73;;;7.03;;
22939;SDS011;11636;52.086;5.090;2022-08-02T08:12:42;10.77;;;8.07;;
22939;SDS011;11636;52.086;5.090;2022-08-02T08:15:36;9.13;;;6.70;;
22939;SDS011;11636;52.086;5.090;2022-08-02T08:18:38;10.10;;;7.53;;
22939;SDS011;11636;52.086;5.090;2022-08-02T08:21:32;6.63;;;5.07;;
22939;SDS011;11636;52.086;5.090;2022-08-02T08:24:20;8.75;;;6.60;;
22939;SDS011;11636;52.086;5.090;2022-08-02T08:27:14;12.85;;;7.05;;
22939;SDS011;11636;52.086;5.090;2022-08-02T08:30:02;8.23;;;6.03;;
22939;SDS011;11636;52.086;5.090;2022-08-02T08:32:56;8.90;;;5.88;;
22939;SDS011;11636;52.086;5.090;2022-08-02T08:35:43;8.35;;;5.35;;
22939;SDS011;11636;52.086;5.090;2022-08-02T08:38:37;5.18;;;3.78;;
22939;SDS011;11636;52.086;5.090;2022-08-02T08:41:24;8.05;;;6.07;;
22939;SDS011;11636;52.086;5.090;2022-08-02T08:44:18;8.18;;;5.03;;
22939;SDS011;11636;52.086;5.090;2022-08-02T08:47:05;9.07;;;6.88;;
22939;SDS011;11636;52.086;5.090;2022-08-02T08:52:53;12.18;;;8.77;;
22939;SDS011;11636;52.086;5.090;2022-08-02T08:55:59;10.52;;;7.78;;
22939;SDS011;11636;52.086;5.090;2022-08-02T08:58:48;11.23;;;7.70;;
22939;SDS011;11636;52.086;5.090;2022-08-02T09:01:43;11.18;;;8.55;;
22939;SDS011;11636;52.086;5.090;2022-08-02T09:04:36;15.77;;;8.15;;
22939;SDS011;11636;52.086;5.090;2022-08-02T09:07:40;10.35;;;7.47;;
22939;SDS011;11636;52.086;5.090;2022-08-02T09:10:38;10.52;;;9.18;;
22939;SDS011;11636;52.086;5.090;2022-08-02T09:13:32;14.25;;;9.85;;
22939;SDS011;11636;52.086;5.090;2022-08-02T09:16:33;12.18;;;9.20;;
22939;SDS011;11636;52.086;5.090;2022-08-02T09:19:23;12.93;;;9.27;;
22939;SDS011;11636;52.086;5.090;2022-08-02T09:22:18;17.48;;;12.23;;
22939;SDS011;11636;52.086;5.090;2022-08-02T09:25:07;13.32;;;10.90;;
22939;SDS011;11636;52.086;5.090;2022-08-02T09:28:08;13.65;;;9.57;;
22939;SDS011;11636;52.086;5.090;2022-08-02T09:30:56;13.32;;;10.18;;
22939;SDS011;11636;52.086;5.090;2022-08-02T09:34:10;14.60;;;10.45;;
22939;SDS011;11636;52.086;5.090;2022-08-02T09:36:57;15.55;;;12.65;;
22939;SDS011;11636;52.086;5.090;2022-08-02T09:39:51;15.23;;;11.63;;
22939;SDS011;11636;52.086;5.090;2022-08-02T09:42:57;11.60;;;9.55;;
22939;SDS011;11636;52.086;5.090;2022-08-02T09:45:45;12.25;;;9.00;;
22939;SDS011;11636;52.086;5.090;2022-08-02T09:48:49;12.02;;;9.48;;
22939;SDS011;11636;52.086;5.090;2022-08-02T09:54:38;9.65;;;7.00;;
22939;SDS011;11636;52.086;5.090;2022-08-02T09:57:26;11.18;;;8.32;;
22939;SDS011;11636;52.086;5.090;2022-08-02T10:00:21;9.85;;;7.30;;
22939;SDS011;11636;52.086;5.090;2022-08-02T10:03:35;8.85;;;7.00;;
22939;SDS011;11636;52.086;5.090;2022-08-02T10:06:29;7.70;;;5.60;;
22939;SDS011;11636;52.086;5.090;2022-08-02T10:09:17;6.85;;;4.75;;
22939;SDS011;11636;52.086;5.090;2022-08-02T10:12:12;10.20;;;4.82;;
22939;SDS011;11636;52.086;5.090;2022-08-02T10:15:06;7.45;;;5.13;;
22939;SDS011;11636;52.086;5.090;2022-08-02T10:17:54;7.90;;;4.43;;
22939;SDS011;11636;52.086;5.090;2022-08-02T10:21:15;7.90;;;4.28;;
22939;SDS011;11636;52.086;5.090;2022-08-02T10:24:36;6.32;;;4.75;;
22939;SDS011;11636;52.086;5.090;2022-08-02T10:27:34;6.18;;;4.03;;
22939;SDS011;11636;52.086;5.090;2022-08-02T10:30:43;6.63;;;3.90;;
22939;SDS011;11636;52.086;5.090;2022-08-02T10:33:40;6.43;;;3.20;;
22939;SDS011;11636;52.086;5.090;2022-08-02T10:36:35;5.88;;;4.60;;
22939;SDS011;11636;52.086;5.090;2022-08-02T10:39:42;7.85;;;3.75;;
22939;SDS011;11636;52.086;5.090;2022-08-02T10:42:43;6.53;;;3.60;;
22939;SDS011;11636;52.086;5.090;2022-08-02T10:45:32;5.20;;;3.22;;
22939;SDS011;11636;52.086;5.090;2022-08-02T10:48:27;6.85;;;3.45;;
22939;SDS011;11636;52.086;5.090;2022-08-02T10:51:20;6.43;;;3.08;;
22939;SDS011;11636;52.086;5.090;2022-08-02T10:54:24;5.50;;;3.20;;
22939;SDS011;11636;52.086;5.090;2022-08-02T10:57:14;6.78;;;3.25;;
22939;SDS011;11636;52.086;5.090;2022-08-02T11:00:10;10.13;;;3.95;;
22939;SDS011;11636;52.086;5.090;2022-08-02T11:03:37;8.82;;;3.92;;
22939;SDS011;11636;52.086;5.090;2022-08-02T11:06:31;4.72;;;3.30;;
22939;SDS011;11636;52.086;5.090;2022-08-02T11:09:25;5.60;;;3.05;;
22939;SDS011;11636;52.086;5.090;2022-08-02T11:12:24;5.25;;;2.70;;
22939;SDS011;11636;52.086;5.090;2022-08-02T11:15:13;5.05;;;2.72;;
22939;SDS011;11636;52.086;5.090;2022-08-02T11:18:07;5.22;;;3.00;;
22939;SDS011;11636;52.086;5.090;2022-08-02T11:24:24;5.18;;;2.95;;
22939;SDS011;11636;52.086;5.090;2022-08-02T11:27:17;7.57;;;2.83;;
22939;SDS011;11636;52.086;5.090;2022-08-02T11:30:13;4.22;;;2.15;;
22939;SDS011;11636;52.086;5.090;2022-08-02T11:33:12;5.55;;;3.08;;
22939;SDS011;11636;52.086;5.090;2022-08-02T11:36:00;5.45;;;3.22;;
22939;SDS011;11636;52.086;5.090;2022-08-02T11:39:11;4.70;;;2.53;;
22939;SDS011;11636;52.086;5.090;2022-08-02T11:42:06;4.18;;;2.40;;
22939;SDS011;11636;52.086;5.090;2022-08-02T11:45:01;3.75;;;2.08;;
22939;SDS011;11636;52.086;5.090;2022-08-02T11:47:51;6.18;;;1.88;;
22939;SDS011;11636;52.086;5.090;2022-08-02T11:50:45;3.38;;;1.85;;
22939;SDS011;11636;52.086;5.090;2022-08-02T11:53:40;2.90;;;1.85;;
22939;SDS011;11636;52.086;5.090;2022-08-02T11:56:35;7.22;;;2.05;;
22939;SDS011;11636;52.086;5.090;2022-08-02T11:59:22;4.32;;;1.90;;
22939;SDS011;11636;52.086;5.090;2022-08-02T12:02:16;4.28;;;1.77;;
22939;SDS011;11636;52.086;5.090;2022-08-02T12:05:05;6.45;;;2.10;;
22939;SDS011;11636;52.086;5.090;2022-08-02T12:08:04;4.20;;;2.17;;
22939;SDS011;11636;52.086;5.090;2022-08-02T12:11:01;3.65;;;2.08;;
22939;SDS011;11636;52.086;5.090;2022-08-02T12:13:49;6.55;;;2.78;;
22939;SDS011;11636;52.086;5.090;2022-08-02T12:16:43;6.65;;;3.05;;
22939;SDS011;11636;52.086;5.090;2022-08-02T12:19:50;4.63;;;2.88;;
22939;SDS011;11636;52.086;5.090;2022-08-02T12:22:43;6.28;;;3.60;;
22939;SDS011;11636;52.086;5.090;2022-08-02T12:25:31;6.35;;;3.20;;
22939;SDS011;11636;52.086;5.090;2022-08-02T12:28:25;5.78;;;2.88;;
22939;SDS011;11636;52.086;5.090;2022-08-02T12:31:19;3.60;;;2.10;;
22939;SDS011;11636;52.086;5.090;2022-08-02T12:34:10;4.35;;;2.40;;
22939;SDS011;11636;52.086;5.090;2022-08-02T12:37:23;7.10;;;2.00;;
22939;SDS011;11636;52.086;5.090;2022-08-02T12:40:22;5.60;;;2.10;;
22939;SDS011;11636;52.086;5.090;2022-08-02T12:43:19;3.97;;;1.80;;
22939;SDS011;11636;52.086;5.090;2022-08-02T12:46:16;5.80;;;2.17;;
22939;SDS011;11636;52.086;5.090;2022-08-02T12:49:15;5.07;;;1.95;;
22939;SDS011;11636;52.086;5.090;2022-08-02T12:52:19;4.85;;;1.63;;
22939;SDS011;11636;52.086;5.090;2022-08-02T12:55:17;2.53;;;1.20;;
22939;SDS011;11636;52.086;5.090;2022-08-02T12:58:47;3.35;;;1.33;;
22939;SDS011;11636;52.086;5.090;2022-08-02T13:01:41;3.80;;;1.92;;
22939;SDS011;11636;52.086;5.090;2022-08-02T13:04:31;3.40;;;1.38;;
22939;SDS011;11636;52.086;5.090;2022-08-02T13:07:25;4.57;;;1.77;;
22939;SDS011;11636;52.086;5.090;2022-08-02T13:10:13;4.55;;;1.70;;
22939;SDS011;11636;52.086;5.090;2022-08-02T13:13:07;5.15;;;1.63;;
22939;SDS011;11636;52.086;5.090;2022-08-02T13:15:55;6.70;;;2.20;;
22939;SDS011;11636;52.086;5.090;2022-08-02T13:18:48;4.32;;;1.50;;
22939;SDS011;11636;52.086;5.090;2022-08-02T13:21:35;3.15;;;1.33;;
22939;SDS011;11636;52.086;5.090;2022-08-02T13:24:47;2.70;;;1.60;;
22939;SDS011;11636;52.086;5.090;2022-08-02T13:27:42;4.18;;;1.77;;
22939;SDS011;11636;52.086;5.090;2022-08-02T13:30:35;5.45;;;1.92;;
22939;SDS011;11636;52.086;5.090;2022-08-02T13:33:38;6.32;;;1.98;;
22939;SDS011;11636;52.086;5.090;2022-08-02T13:36:45;5.05;;;1.70;;
22939;SDS011;11636;52.086;5.090;2022-08-02T13:39:38;5.25;;;2.65;;
22939;SDS011;11636;52.086;5.090;2022-08-02T13:42:25;5.80;;;2.50;;
22939;SDS011;11636;52.086;5.090;2022-08-02T13:45:19;4.50;;;2.17;;
22939;SDS011;11636;52.086;5.090;2022-08-02T13:48:14;6.60;;;1.80;;
22939;SDS011;11636;52.086;5.090;2022-08-02T13:51:07;4.35;;;2.05;;
22939;SDS011;11636;52.086;5.090;2022-08-02T13:54:00;7.55;;;2.10;;
22939;SDS011;11636;52.086;5.090;2022-08-02T13:56:54;5.55;;;2.50;;
22939;SDS011;11636;52.086;5.090;2022-08-02T13:59:42;7.97;;;2.05;;
22939;SDS011;11636;52.086;5.090;2022-08-02T14:02:44;4.93;;;1.87;;
22939;SDS011;11636;52.086;5.090;2022-08-02T14:05:31;5.90;;;2.00;;
22939;SDS011;11636;52.086;5.090;2022-08-02T14:08:34;3.70;;;1.35;;
22939;SDS011;11636;52.086;5.090;2022-08-02T14:11:21;5.68;;;1.85;;
22939;SDS011;11636;52.086;5.090;2022-08-02T14:14:15;9.43;;;2.25;;
22939;SDS011;11636;52.086;5.090;2022-08-02T14:17:09;4.60;;;2.10;;
22939;SDS011;11636;52.086;5.090;2022-08-02T14:19:57;5.63;;;2.30;;
22939;SDS011;11636;52.086;5.090;2022-08-02T14:22:50;5.45;;;1.88;;
22939;SDS011;11636;52.086;5.090;2022-08-02T14:25:38;4.45;;;1.92;;
22939;SDS011;11636;52.086;5.090;2022-08-02T14:28:31;4.40;;;2.03;;
22939;SDS011;11636;52.086;5.090;2022-08-02T14:31:19;4.47;;;2.08;;
22939;SDS011;11636;52.086;5.090;2022-08-02T14:34:12;8.00;;;2.72;;
22939;SDS011;11636;52.086;5.090;2022-08-02T14:36:59;5.25;;;1.50;;
22939;SDS011;11636;52.086;5.090;2022-08-02T14:39:53;4.70;;;1.67;;
22939;SDS011;11636;52.086;5.090;2022-08-02T14:42:48;7.30;;;2.05;;
22939;SDS011;11636;52.086;5.090;2022-08-02T14:45:37;6.30;;;1.90;;
22939;SDS011;11636;52.086;5.090;2022-08-02T14:48:30;4.78;;;1.50;;
22939;SDS011;11636;52.086;5.090;2022-08-02T14:51:24;8.98;;;2.30;;
22939;SDS011;11636;52.086;5.090;2022-08-02T14:54:11;4.25;;;1.85;;
22939;SDS011;11636;52.086;5.090;2022-08-02T14:57:13;4.57;;;1.58;;
22939;SDS011;11636;52.086;5.090;2022-08-02T15:00:09;6.15;;;1.40;;
22939;SDS011;11636;52.086;5.090;2022-08-02T15:03:03;6.88;;;1.30;;
22939;SDS011;11636;52.086;5.090;2022-08-02T15:05:57;4.85;;;1.40;;
22939;SDS011;11636;52.086;5.090;2022-08-02T15:08:51;8.77;;;2.00;;
22939;SDS011;11636;52.086;5.090;2022-08-02T15:11:44;7.82;;;1.77;;
22939;SDS011;11636;52.086;5.090;2022-08-02T15:14:35;5.75;;;1.50;;
22939;SDS011;11636;52.086;5.090;2022-08-02T15:17:29;8.77;;;1.85;;
22939;SDS011;11636;52.086;5.090;2022-08-02T15:20:17;7.65;;;1.63;;
22939;SDS011;11636;52.086;5.090;2022-08-02T15:23:12;7.40;;;1.85;;
22939;SDS011;11636;52.086;5.090;2022-08-02T15:26:01;7.50;;;1.60;;
22939;SDS011;11636;52.086;5.090;2022-08-02T15:28:55;7.57;;;1.55;;
22939;SDS011;11636;52.086;5.090;2022-08-02T15:31:49;7.57;;;1.95;;
22939;SDS011;11636;52.086;5.090;2022-08-02T15:34:44;5.63;;;1.50;;
22939;SDS011;11636;52.086;5.090;2022-08-02T15:37:37;6.15;;;1.50;;
22939;SDS011;11636;52.086;5.090;2022-08-02T15:40:27;7.00;;;1.60;;
22939;SDS011;11636;52.086;5.090;2022-08-02T15:43:20;6.68;;;1.40;;
22939;SDS011;11636;52.086;5.090;2022-08-02T15:46:14;6.63;;;1.40;;
22939;SDS011;11636;52.086;5.090;2022-08-02T15:49:16;5.32;;;1.42;;
22939;SDS011;11636;52.086;5.090;2022-08-02T15:52:12;6.32;;;2.35;;
22939;SDS011;11636;52.086;5.090;2022-08-02T15:55:00;6.80;;;1.80;;
22939;SDS011;11636;52.086;5.090;2022-08-02T15:57:54;5.70;;;1.50;;
22939;SDS011;11636;52.086;5.090;2022-08-02T16:00:47;7.53;;;1.45;;
22939;SDS011;11636;52.086;5.090;2022-08-02T16:03:41;7.13;;;1.60;;
22939;SDS011;11636;52.086;5.090;2022-08-02T16:06:29;5.63;;;1.50;;
22939;SDS011;11636;52.086;5.090;2022-08-02T16:09:22;4.63;;;1.48;;
22939;SDS011;11636;52.086;5.090;2022-08-02T16:12:10;6.00;;;1.50;;
22939;SDS011;11636;52.086;5.090;2022-08-02T16:15:04;7.88;;;1.50;;
22939;SDS011;11636;52.086;5.090;2022-08-02T16:17:51;6.90;;;1.45;;
22939;SDS011;11636;52.086;5.090;2022-08-02T16:20:45;4.80;;;1.70;;
22939;SDS011;11636;52.086;5.090;2022-08-02T16:23:40;6.22;;;1.63;;
22939;SDS011;11636;52.086;5.090;2022-08-02T16:26:47;6.25;;;1.30;;
22939;SDS011;11636;52.086;5.090;2022-08-02T16:29:42;5.30;;;1.60;;
22939;SDS011;11636;52.086;5.090;2022-08-02T16:32:29;4.95;;;1.30;;
22939;SDS011;11636;52.086;5.090;2022-08-02T16:35:22;4.93;;;1.15;;
22939;SDS011;11636;52.086;5.090;2022-08-02T16:38:10;7.90;;;3.47;;
22939;SDS011;11636;52.086;5.090;2022-08-02T16:41:03;13.95;;;6.35;;
22939;SDS011;11636;52.086;5.090;2022-08-02T16:43:52;8.02;;;3.72;;
22939;SDS011;11636;52.086;5.090;2022-08-02T16:46:46;5.80;;;2.05;;
22939;SDS011;11636;52.086;5.090;2022-08-02T16:49:36;6.00;;;1.50;;
22939;SDS011;11636;52.086;5.090;2022-08-02T16:52:50;6.05;;;1.55;;
22939;SDS011;11636;52.086;5.090;2022-08-02T16:55:38;6.57;;;1.58;;
22939;SDS011;11636;52.086;5.090;2022-08-02T16:58:38;7.47;;;1.63;;
22939;SDS011;11636;52.086;5.090;2022-08-02T17:01:33;7.13;;;1.60;;
22939;SDS011;11636;52.086;5.090;2022-08-02T17:04:40;5.32;;;1.60;;
22939;SDS011;11636;52.086;5.090;2022-08-02T17:07:34;6.60;;;1.50;;
22939;SDS011;11636;52.086;5.090;2022-08-02T17:10:47;8.60;;;1.58;;
22939;SDS011;11636;52.086;5.090;2022-08-02T17:13:41;9.02;;;1.90;;
22939;SDS011;11636;52.086;5.090;2022-08-02T17:16:29;10.10;;;2.03;;
22939;SDS011;11636;52.086;5.090;2022-08-02T17:19:25;5.25;;;1.60;;
22939;SDS011;11636;52.086;5.090;2022-08-02T17:22:23;5.90;;;1.55;;
22939;SDS011;11636;52.086;5.090;2022-08-02T17:25:11;8.00;;;1.63;;
22939;SDS011;11636;52.086;5.090;2022-08-02T17:28:06;7.65;;;1.70;;
22939;SDS011;11636;52.086;5.090;2022-08-02T17:31:00;11.45;;;2.30;;
22939;SDS011;11636;52.086;5.090;2022-08-02T17:33:54;6.78;;;1.50;;
22939;SDS011;11636;52.086;5.090;2022-08-02T17:36:44;8.38;;;1.77;;
22939;SDS011;11636;52.086;5.090;2022-08-02T17:39:37;5.35;;;1.50;;
22939;SDS011;11636;52.086;5.090;2022-08-02T17:42:37;5.78;;;1.60;;
22939;SDS011;11636;52.086;5.090;2022-08-02T17:45:34;11.88;;;2.03;;
22939;SDS011;11636;52.086;5.090;2022-08-02T17:48:48;7.53;;;1.40;;
22939;SDS011;11636;52.086;5.090;2022-08-02T17:52:01;4.20;;;1.55;;
22939;SDS011;11636;52.086;5.090;2022-08-02T17:55:08;6.55;;;1.50;;
22939;SDS011;11636;52.086;5.090;2022-08-02T17:58:06;6.10;;;1.30;;
22939;SDS011;11636;52.086;5.090;2022-08-02T18:04:09;9.63;;;2.33;;
22939;SDS011;11636;52.086;5.090;2022-08-02T18:07:12;7.15;;;1.83;;
22939;SDS011;11636;52.086;5.090;2022-08-02T18:10:10;7.53;;;1.92;;
22939;SDS011;11636;52.086;5.090;2022-08-02T18:13:04;7.78;;;2.17;;